Waupaca, Wisconsin
Current Conditions -  °F | °C
As of 1:15 AM on Friday 31 Oct 2014 (Local Time) from KPCZ Reporting Station
Overcast Overcast  
Wind Chill: 32°   Ceiling: 9500
Heat Index: 39°   Visibility: 10mi
Dew Point: 31°   Wind: 13mph
Humidity: 72%   Direction: 310°NW
Pressure: 30.07"   Gusts: 22mph
Location:  44.36°N, 89.09°W
Report Text: KPCZ 310615Z AUTO 31011G19KT 10SM SCT027 SCT037 OVC095 04/00 A3007 RMK AO2 T00411005
Loading
Personal Weather Stations






























Interactive Weather Map
Tropical Storm Tracking
New forecast layout! Learn more

10-Day Weather Forecast

Advertisements
Track Severe Weather on mobile